createdAt,value
2018-06-18T00:00:23.102Z,38.06
2018-06-18T00:01:23.143Z,38.35
2018-06-18T00:02:23.144Z,38.33
2018-06-18T00:03:23.174Z,38.35
2018-06-18T00:04:23.202Z,38.45
2018-06-18T00:05:23.221Z,38.54
2018-06-18T00:06:22.981Z,38.54
2018-06-18T00:07:23.281Z,38.14
2018-06-18T00:08:23.307Z,38.45
2018-06-18T00:09:23.308Z,38.43
2018-06-18T00:10:23.079Z,38.43
2018-06-18T00:11:23.362Z,38.43
2018-06-18T00:12:23.381Z,38.53
2018-06-18T00:13:23.438Z,38.53
2018-06-18T00:14:23.440Z,38.33
2018-06-18T00:15:23.455Z,38.43
2018-06-18T00:16:23.474Z,38.24
2018-06-18T00:17:23.499Z,38.72
2018-06-18T00:18:23.269Z,38.62
2018-06-18T00:19:23.551Z,38.24
2018-06-18T00:20:23.569Z,38.72
2018-06-18T00:21:23.598Z,38.62
2018-06-18T00:22:23.633Z,38.62
2018-06-18T00:23:23.665Z,38.43
2018-06-18T00:24:23.682Z,38.62
2018-06-18T00:25:23.433Z,38.72
2018-06-18T00:26:23.711Z,38.72
2018-06-18T00:27:23.730Z,38.81
2018-06-18T00:28:23.759Z,38.81
2018-06-18T00:29:23.785Z,38.81
2018-06-18T00:30:23.810Z,38.81
2018-06-18T00:31:23.822Z,38.91
2018-06-18T00:32:23.854Z,39.01
2018-06-18T00:33:23.893Z,38.91
2018-06-18T00:34:23.918Z,39.11
2018-06-18T00:35:23.933Z,39.2
2018-06-18T00:36:23.673Z,39.11
2018-06-18T00:37:23.968Z,38.72
2018-06-18T00:38:23.983Z,39.2
2018-06-18T00:39:24.016Z,39.11
2018-06-18T00:40:24.057Z,39.39
2018-06-18T00:41:24.060Z,39.29
2018-06-18T00:42:24.078Z,39.2
2018-06-18T00:43:24.107Z,39.29
2018-06-18T00:44:23.859Z,39.59
2018-06-18T00:45:24.171Z,39.59
2018-06-18T00:46:24.190Z,39.59
2018-06-18T00:47:24.200Z,39.59
2018-06-18T00:48:24.222Z,39.59
2018-06-18T00:49:23.981Z,39.59
2018-06-18T00:50:24.268Z,39.56
2018-06-18T00:51:24.291Z,39.78
2018-06-18T00:52:24.327Z,39.95
2018-06-18T00:53:24.329Z,39.68
2018-06-18T00:54:24.380Z,39.78
2018-06-18T00:55:24.594Z,39.87
2018-06-18T00:56:24.413Z,39.76
2018-06-18T00:57:24.172Z,39.59
2018-06-18T00:58:24.187Z,39.78
2018-06-18T00:59:24.490Z,39.78
2018-06-18T01:00:24.505Z,40.07
2018-06-18T01:01:24.534Z,40.07
2018-06-18T01:02:24.544Z,39.76
2018-06-18T01:03:24.587Z,39.97
2018-06-18T01:04:24.326Z,39.78
2018-06-18T01:05:24.612Z,39.76
2018-06-18T01:06:24.644Z,40.26
2018-06-18T01:07:24.667Z,39.86
2018-06-18T01:08:24.681Z,40.05
2018-06-18T01:09:24.699Z,40.14
2018-06-18T01:10:24.844Z,40.14
2018-06-18T01:11:24.513Z,40.05
2018-06-18T01:12:24.772Z,40.05
2018-06-18T01:13:24.530Z,39.95
2018-06-18T01:14:24.842Z,40.05
2018-06-18T01:15:24.857Z,40.14
2018-06-18T01:16:24.861Z,40.14
2018-06-18T01:17:24.900Z,40.14
2018-06-18T01:18:24.912Z,40.24
2018-06-18T01:19:24.946Z,40.53
2018-06-18T01:20:24.955Z,40.43
2018-06-18T01:21:24.997Z,40.53
2018-06-18T01:22:25.014Z,40.43
2018-06-18T01:23:25.043Z,40.43
2018-06-18T01:24:25.061Z,40.53
2018-06-18T01:25:24.806Z,40.81
2018-06-18T01:26:25.096Z,40.53
2018-06-18T01:27:25.110Z,40.72
2018-06-18T01:28:25.164Z,40.63
2018-06-18T01:29:25.163Z,40.53
2018-06-18T01:30:25.198Z,40.63
2018-06-18T01:31:25.224Z,40.72
2018-06-18T01:32:24.967Z,40.91
2018-06-18T01:33:25.247Z,40.91
2018-06-18T01:34:25.291Z,40.72
2018-06-18T01:35:25.314Z,40.91
2018-06-18T01:36:25.333Z,40.81
2018-06-18T01:37:25.348Z,40.72
2018-06-18T01:38:25.372Z,40.63
2018-06-18T01:39:25.122Z,40.63
2018-06-18T01:40:25.407Z,41.01
2018-06-18T01:41:25.456Z,40.91
2018-06-18T01:42:25.484Z,41.11
2018-06-18T01:43:25.488Z,41.01
2018-06-18T01:44:25.527Z,40.91
2018-06-18T01:45:25.539Z,40.81
2018-06-18T01:46:25.289Z,40.91
2018-06-18T01:47:25.304Z,41.01
2018-06-18T01:48:25.607Z,40.91
2018-06-18T01:49:25.621Z,41.11
2018-06-18T01:50:25.654Z,41.11
2018-06-18T01:51:25.656Z,41.2
2018-06-18T01:52:25.705Z,41.11
2018-06-18T01:53:25.745Z,41.2
2018-06-18T01:54:25.758Z,41.2
2018-06-18T01:55:26.019Z,40.72
2018-06-18T01:56:25.789Z,41.3
2018-06-18T01:57:25.817Z,41.2
2018-06-18T01:58:25.820Z,41.11
2018-06-18T01:59:25.862Z,41.11
2018-06-18T02:00:25.597Z,41.11
2018-06-18T02:01:25.901Z,41.11
2018-06-18T02:02:25.938Z,41.11
2018-06-18T02:03:25.954Z,41.2
2018-06-18T02:04:25.959Z,41.2
2018-06-18T02:05:25.729Z,41.11
2018-06-18T02:06:26.034Z,41.11
2018-06-18T02:07:26.040Z,41.2
2018-06-18T02:08:26.056Z,41.3
2018-06-18T02:09:25.816Z,41.11
2018-06-18T02:10:26.191Z,41.11
2018-06-18T02:11:26.141Z,41.11
2018-06-18T02:12:26.159Z,41.11
2018-06-18T02:13:26.173Z,41.01
2018-06-18T02:14:25.942Z,41.11
2018-06-18T02:15:25.948Z,41.11
2018-06-18T02:16:26.235Z,41.78
2018-06-18T02:17:26.006Z,41.3
2018-06-18T02:18:26.029Z,41.78
2018-06-18T02:19:26.044Z,41.88
2018-06-18T02:20:26.336Z,41.76
2018-06-18T02:21:26.342Z,41.68
2018-06-18T02:22:26.386Z,41.78
2018-06-18T02:23:26.405Z,41.97
2018-06-18T02:24:26.147Z,42.05
2018-06-18T02:25:26.436Z,42.16
2018-06-18T02:26:26.194Z,41.78
2018-06-18T02:27:26.232Z,41.97
2018-06-18T02:28:26.521Z,41.95
2018-06-18T02:29:26.546Z,42.07
2018-06-18T02:30:26.549Z,41.78
2018-06-18T02:31:26.589Z,42.26
2018-06-18T02:32:26.595Z,42.14
2018-06-18T02:33:26.626Z,42.46
2018-06-18T02:34:26.673Z,41.95
2018-06-18T02:35:26.661Z,42.05
2018-06-18T02:36:26.689Z,42.16
2018-06-18T02:37:26.706Z,42.43
2018-06-18T02:38:26.491Z,42.05
2018-06-18T02:39:26.777Z,42.33
2018-06-18T02:40:26.517Z,42.53
2018-06-18T02:41:26.812Z,42.46
2018-06-18T02:42:26.825Z,42.24
2018-06-18T02:43:26.848Z,42.33
2018-06-18T02:44:26.881Z,42.53
2018-06-18T02:45:26.630Z,42.43
2018-06-18T02:46:26.921Z,42.43
2018-06-18T02:47:26.940Z,42.24
2018-06-18T02:48:26.959Z,42.43
2018-06-18T02:49:26.719Z,42.43
2018-06-18T02:50:27.027Z,42.82
2018-06-18T02:51:26.763Z,42.53
2018-06-18T02:52:27.046Z,42.72
2018-06-18T02:53:27.095Z,42.63
2018-06-18T02:54:27.108Z,42.33
2018-06-18T02:55:27.125Z,43.01
2018-06-18T02:56:27.256Z,42.82
2018-06-18T02:57:27.175Z,43.01
2018-06-18T02:58:27.181Z,42.43
2018-06-18T02:59:27.225Z,43.01
2018-06-18T03:00:27.251Z,43.01
2018-06-18T03:01:27.281Z,42.43
2018-06-18T03:02:27.300Z,42.91
2018-06-18T03:03:27.040Z,42.53
2018-06-18T03:04:27.354Z,42.53
2018-06-18T03:05:27.370Z,42.63
2018-06-18T03:06:27.376Z,42.43
2018-06-18T03:07:27.412Z,42.72
2018-06-18T03:08:27.412Z,42.14
2018-06-18T03:09:27.449Z,42.82
2018-06-18T03:10:27.460Z,42.91
2018-06-18T03:11:27.496Z,42.91
2018-06-18T03:12:27.251Z,42.91
2018-06-18T03:13:27.258Z,42.72
2018-06-18T03:14:27.569Z,42.72
2018-06-18T03:15:27.308Z,42.72
2018-06-18T03:16:27.593Z,43.2
2018-06-18T03:17:27.618Z,43.01
2018-06-18T03:18:27.648Z,42.63
2018-06-18T03:19:27.407Z,43.3
2018-06-18T03:20:27.679Z,42.82
2018-06-18T03:21:27.707Z,42.72
2018-06-18T03:22:27.467Z,42.63
2018-06-18T03:23:27.769Z,42.53
2018-06-18T03:24:27.782Z,42.72
2018-06-18T03:25:27.806Z,42.82
2018-06-18T03:26:27.834Z,42.63
2018-06-18T03:27:27.834Z,42.72
2018-06-18T03:28:27.880Z,42.63
2018-06-18T03:29:27.612Z,42.72
2018-06-18T03:30:27.921Z,42.82
2018-06-18T03:31:27.659Z,42.63
2018-06-18T03:32:27.972Z,42.63
2018-06-18T03:33:27.995Z,42.63
2018-06-18T03:34:27.732Z,42.72
2018-06-18T03:35:28.038Z,42.82
2018-06-18T03:36:27.786Z,42.72
2018-06-18T03:37:28.057Z,43.01
2018-06-18T03:38:28.092Z,43.4
2018-06-18T03:39:27.850Z,43.3
2018-06-18T03:40:28.133Z,43.01
2018-06-18T03:41:28.166Z,42.91
2018-06-18T03:42:28.182Z,43.3
2018-06-18T03:43:27.946Z,43.49
2018-06-18T03:44:28.228Z,43.49
2018-06-18T03:45:28.249Z,43.59
2018-06-18T03:46:28.271Z,43.59
2018-06-18T03:47:28.284Z,43.3
2018-06-18T03:48:28.045Z,43.11
2018-06-18T03:49:28.340Z,43.4
2018-06-18T03:50:28.369Z,43.11
2018-06-18T03:51:28.120Z,43.11
2018-06-18T03:52:28.417Z,42.82
2018-06-18T03:53:28.443Z,43.11
2018-06-18T03:54:28.446Z,43.78
2018-06-18T03:55:28.751Z,43.78
2018-06-18T03:56:28.486Z,43.68
2018-06-18T03:57:28.528Z,43.01
2018-06-18T03:58:28.541Z,43.4
2018-06-18T03:59:28.305Z,43.2
2018-06-18T04:00:28.595Z,43.4
2018-06-18T04:01:28.338Z,43.11
2018-06-18T04:02:28.633Z,43.59
2018-06-18T04:03:28.645Z,43.3
2018-06-18T04:04:28.395Z,43.2
2018-06-18T04:05:28.738Z,43.59
2018-06-18T04:06:28.727Z,43.4
2018-06-18T04:07:28.732Z,43.4
2018-06-18T04:08:28.755Z,43.59
2018-06-18T04:09:28.785Z,43.68
2018-06-18T04:10:28.814Z,43.88
2018-06-18T04:11:28.832Z,43.88
2018-06-18T04:12:28.846Z,43.78
2018-06-18T04:13:28.867Z,43.49
2018-06-18T04:14:28.630Z,43.97
2018-06-18T04:15:28.928Z,43.97
2018-06-18T04:16:28.955Z,43.59
2018-06-18T04:17:28.954Z,43.97
2018-06-18T04:18:28.986Z,43.97
2018-06-18T04:19:28.778Z,43.78
2018-06-18T04:20:29.029Z,43.88
2018-06-18T04:21:28.827Z,43.88
2018-06-18T04:22:29.090Z,43.78
2018-06-18T04:23:29.116Z,43.59
2018-06-18T04:24:28.849Z,43.4
2018-06-18T04:25:29.145Z,43.97
2018-06-18T04:26:28.902Z,43.97
2018-06-18T04:27:29.188Z,43.78
2018-06-18T04:28:29.206Z,43.97
2018-06-18T04:29:29.219Z,43.97
2018-06-18T04:30:29.267Z,43.97
2018-06-18T04:31:29.003Z,43.68
2018-06-18T04:32:29.292Z,43.68
2018-06-18T04:33:29.321Z,43.78
2018-06-18T04:34:29.339Z,43.59
2018-06-18T04:35:29.363Z,43.78
2018-06-18T04:36:29.386Z,43.68
2018-06-18T04:37:29.505Z,43.78
2018-06-18T04:38:29.447Z,43.78
2018-06-18T04:39:29.462Z,44.07
2018-06-18T04:40:29.477Z,44.45
2018-06-18T04:41:29.234Z,43.59
2018-06-18T04:42:29.264Z,44.26
2018-06-18T04:43:29.280Z,44.07
2018-06-18T04:44:29.577Z,44.35
2018-06-18T04:45:29.581Z,44.55
2018-06-18T04:46:29.345Z,44.74
2018-06-18T04:47:29.625Z,44.76
2018-06-18T04:48:29.662Z,44.74
2018-06-18T04:49:29.696Z,44.67
2018-06-18T04:50:29.712Z,44.48
2018-06-18T04:51:29.744Z,44.74
2018-06-18T04:52:29.743Z,44.76
2018-06-18T04:53:29.775Z,44.48
2018-06-18T04:54:29.796Z,44.45
2018-06-18T04:55:29.807Z,44.67
2018-06-18T04:56:29.975Z,44.48
2018-06-18T04:57:29.873Z,44.35
2018-06-18T04:58:29.879Z,44.48
2018-06-18T04:59:29.901Z,44.48
2018-06-18T05:00:29.664Z,44.57
2018-06-18T05:01:29.941Z,44.45
2018-06-18T05:02:29.721Z,44.67
2018-06-18T05:03:29.991Z,44.67
2018-06-18T05:04:30.025Z,44.48
2018-06-18T05:05:30.034Z,44.57
2018-06-18T05:06:30.054Z,44.67
2018-06-18T05:07:30.151Z,44.48
2018-06-18T05:08:30.125Z,44.48
2018-06-18T05:09:30.141Z,44.48
2018-06-18T05:10:29.894Z,44.57
2018-06-18T05:11:29.902Z,44.67
2018-06-18T05:12:29.923Z,44.57
2018-06-18T05:13:30.216Z,44.57
2018-06-18T05:14:30.257Z,44.76
2018-06-18T05:15:30.255Z,44.76
2018-06-18T05:16:30.021Z,44.76
2018-06-18T05:17:30.316Z,44.76
2018-06-18T05:18:30.348Z,44.67
2018-06-18T05:19:30.369Z,44.86
2018-06-18T05:20:30.439Z,44.57
2018-06-18T05:21:30.139Z,44.76
2018-06-18T05:22:30.422Z,44.76
2018-06-18T05:23:30.458Z,44.76
2018-06-18T05:24:30.461Z,44.57
2018-06-18T05:25:30.234Z,44.67
2018-06-18T05:26:30.580Z,44.57
2018-06-18T05:27:30.544Z,44.76
2018-06-18T05:28:30.565Z,44.86
2018-06-18T05:29:30.582Z,44.48
2018-06-18T05:30:30.602Z,44.48
2018-06-18T05:31:30.352Z,44.79
2018-06-18T05:32:30.646Z,44.69
2018-06-18T05:33:30.684Z,44.59
2018-06-18T05:34:30.700Z,44.49
2018-06-18T05:35:30.786Z,44.69
2018-06-18T05:36:30.476Z,44.49
2018-06-18T05:37:30.496Z,44.69
2018-06-18T05:38:30.783Z,44.59
2018-06-18T05:39:30.538Z,44.79
2018-06-18T05:40:30.845Z,44.49
2018-06-18T05:41:30.578Z,44.59
2018-06-18T05:42:30.619Z,44.59
2018-06-18T05:43:31.077Z,44.59
2018-06-18T05:44:30.919Z,44.4
2018-06-18T05:45:30.945Z,44.4
2018-06-18T05:46:30.963Z,44.4
2018-06-18T05:47:30.987Z,44.59
2018-06-18T05:48:31.026Z,44.49
2018-06-18T05:49:30.774Z,44.4
2018-06-18T05:50:31.306Z,44.49
2018-06-18T05:51:31.074Z,44.21
2018-06-18T05:52:31.095Z,44.4
2018-06-18T05:53:31.137Z,44.31
2018-06-18T05:54:31.156Z,44.31
2018-06-18T05:55:31.173Z,44.59
2018-06-18T05:56:31.206Z,44.11
2018-06-18T05:57:31.229Z,44.31
2018-06-18T05:58:31.003Z,44.31
2018-06-18T05:59:31.253Z,44.62
2018-06-18T06:00:31.020Z,44.49
2018-06-18T06:01:31.307Z,44.52
2018-06-18T06:02:31.340Z,44.21
2018-06-18T06:03:31.345Z,44.59
2018-06-18T06:04:31.367Z,44.52
2018-06-18T06:05:31.409Z,44.49
2018-06-18T06:06:31.147Z,44.42
2018-06-18T06:07:31.437Z,44.21
2018-06-18T06:08:31.492Z,44.04
2018-06-18T06:09:31.507Z,44.23
2018-06-18T06:10:31.508Z,44.59
2018-06-18T06:11:31.553Z,44.32
2018-06-18T06:12:31.563Z,44.4
2018-06-18T06:13:31.573Z,44.21
2018-06-18T06:14:31.621Z,44.21
2018-06-18T06:15:31.633Z,44.02
2018-06-18T06:16:31.663Z,44.23
2018-06-18T06:17:31.401Z,44.23
2018-06-18T06:18:31.812Z,44.13
2018-06-18T06:19:31.459Z,43.85
2018-06-18T06:20:31.749Z,44.32
2018-06-18T06:21:31.754Z,43.94
2018-06-18T06:22:31.539Z,43.85
2018-06-18T06:23:31.908Z,43.85
2018-06-18T06:24:31.829Z,44.04
2018-06-18T06:25:31.580Z,43.75
2018-06-18T06:26:31.610Z,43.75
2018-06-18T06:27:31.911Z,44.04
2018-06-18T06:28:31.653Z,43.65
2018-06-18T06:29:32.039Z,44.13
2018-06-18T06:30:31.975Z,43.94
2018-06-18T06:31:31.998Z,43.75
2018-06-18T06:32:32.027Z,43.75
2018-06-18T06:33:32.033Z,43.65
2018-06-18T06:34:32.068Z,43.75
2018-06-18T06:35:32.082Z,43.75
2018-06-18T06:36:32.105Z,43.75
2018-06-18T06:37:32.300Z,43.85
2018-06-18T06:38:32.158Z,43.85
2018-06-18T06:39:32.181Z,44.23
2018-06-18T06:40:32.195Z,44.42
2018-06-18T06:41:32.218Z,44.13
2018-06-18T06:42:31.971Z,43.85
2018-06-18T06:43:32.256Z,43.85
2018-06-18T06:44:32.306Z,43.75
2018-06-18T06:45:32.316Z,44.04
2018-06-18T06:46:32.330Z,43.94
2018-06-18T06:47:32.358Z,43.75
2018-06-18T06:48:32.394Z,43.65
2018-06-18T06:49:32.410Z,43.85
2018-06-18T06:50:32.427Z,43.55
2018-06-18T06:51:32.188Z,43.46
2018-06-18T06:52:32.469Z,43.55
2018-06-18T06:53:32.496Z,43.55
2018-06-18T06:54:32.530Z,43.37
2018-06-18T06:55:32.559Z,43.46
2018-06-18T06:56:32.583Z,43.46
2018-06-18T06:57:32.609Z,43.65
2018-06-18T06:58:32.607Z,43.65
2018-06-18T06:59:32.656Z,43.46
2018-06-18T07:00:32.396Z,43.17
2018-06-18T07:01:32.677Z,43.27
2018-06-18T07:02:32.449Z,43.27
2018-06-18T07:03:32.476Z,43.55
2018-06-18T07:04:32.768Z,43.37
2018-06-18T07:05:32.774Z,43.75
2018-06-18T07:06:32.805Z,43.65
2018-06-18T07:07:32.813Z,43.37
2018-06-18T07:08:32.924Z,43.58
2018-06-18T07:09:32.877Z,43.55
2018-06-18T07:10:32.907Z,43.46
2018-06-18T07:11:32.908Z,43.65
2018-06-18T07:12:32.951Z,43.46
2018-06-18T07:13:33.264Z,43.27
2018-06-18T07:14:32.722Z,43.29
2018-06-18T07:15:33.032Z,43.48
2018-06-18T07:16:32.793Z,43.77
2018-06-18T07:17:33.042Z,43.77
2018-06-18T07:18:33.098Z,43.38
2018-06-18T07:19:33.093Z,43.58
2018-06-18T07:20:33.117Z,43.29
2018-06-18T07:21:32.879Z,43.29
2018-06-18T07:22:33.258Z,43.48
2018-06-18T07:23:33.238Z,43.19
2018-06-18T07:24:32.958Z,43.48
2018-06-18T07:25:33.229Z,43.19
2018-06-18T07:26:33.278Z,43.48
2018-06-18T07:27:33.299Z,43.48
2018-06-18T07:28:33.037Z,43.58
2018-06-18T07:29:33.346Z,43.48
2018-06-18T07:30:33.861Z,43.58
2018-06-18T07:31:33.110Z,43.48
2018-06-18T07:32:33.408Z,43.58
2018-06-18T07:33:33.431Z,43.48
2018-06-18T07:34:33.183Z,43.19
2018-06-18T07:35:33.487Z,43.29
2018-06-18T07:36:33.502Z,43.29
2018-06-18T07:37:33.530Z,43
2018-06-18T07:38:33.575Z,43.29
2018-06-18T07:39:33.560Z,42.71
2018-06-18T07:40:33.578Z,43.38
2018-06-18T07:41:33.608Z,43.29
2018-06-18T07:42:33.647Z,42.61
2018-06-18T07:43:33.667Z,42.8
2018-06-18T07:44:33.679Z,42.8
2018-06-18T07:45:33.794Z,42.8
2018-06-18T07:46:33.472Z,42.8
2018-06-18T07:47:33.760Z,42.71
2018-06-18T07:48:33.780Z,42.9
2018-06-18T07:49:33.533Z,43
2018-06-18T07:50:33.818Z,43.38
2018-06-18T07:51:34.027Z,43
2018-06-18T07:52:33.880Z,42.9
2018-06-18T07:53:33.899Z,42.8
2018-06-18T07:54:33.908Z,42.61
2018-06-18T07:55:33.673Z,42.71
2018-06-18T07:56:33.973Z,42.71
2018-06-18T07:57:34.053Z,42.61
2018-06-18T07:58:34.008Z,43.1
2018-06-18T07:59:33.773Z,43.29
2018-06-18T08:00:34.071Z,43.48
2018-06-18T08:01:34.071Z,43.48
2018-06-18T08:02:34.095Z,43
2018-06-18T08:03:33.866Z,42.9
2018-06-18T08:04:34.143Z,42.93
2018-06-18T08:05:34.179Z,42.8
2018-06-18T08:06:33.929Z,42.9
2018-06-18T08:07:34.223Z,43.1
2018-06-18T08:08:34.237Z,43.02
2018-06-18T08:09:34.318Z,42.8
2018-06-18T08:10:34.294Z,43.1
2018-06-18T08:11:34.319Z,42.9
2018-06-18T08:12:34.075Z,43
2018-06-18T08:13:34.396Z,42.9
2018-06-18T08:14:34.376Z,43.29
2018-06-18T08:15:34.139Z,43.38
2018-06-18T08:16:34.429Z,43.48
2018-06-18T08:17:34.468Z,43.31
2018-06-18T08:18:34.489Z,43.12
2018-06-18T08:19:34.488Z,42.63
2018-06-18T08:20:34.527Z,42.73
2018-06-18T08:21:34.537Z,42.83
2018-06-18T08:22:34.575Z,42.83
2018-06-18T08:23:34.596Z,42.83
2018-06-18T08:24:34.606Z,42.83
2018-06-18T08:25:34.625Z,42.73
2018-06-18T08:26:34.393Z,42.83
2018-06-18T08:27:34.425Z,42.83
2018-06-18T08:28:34.716Z,42.93
2018-06-18T08:29:34.733Z,43.21
2018-06-18T08:30:34.751Z,43.31
2018-06-18T08:31:34.516Z,43.12
2018-06-18T08:32:34.813Z,42.83
2018-06-18T08:33:34.817Z,42.73
2018-06-18T08:34:34.850Z,42.94
2018-06-18T08:35:34.610Z,42.25
2018-06-18T08:36:34.641Z,42.93
2018-06-18T08:37:34.927Z,43.02
2018-06-18T08:38:34.988Z,43.21
2018-06-18T08:39:34.699Z,42.73
2018-06-18T08:40:34.733Z,42.83
2018-06-18T08:41:35.007Z,42.83
2018-06-18T08:42:34.766Z,43.21
2018-06-18T08:43:34.791Z,43.21
2018-06-18T08:44:34.819Z,42.35
2018-06-18T08:45:35.166Z,42.35
2018-06-18T08:46:34.876Z,42.93
2018-06-18T08:47:34.885Z,43.02
2018-06-18T08:48:34.921Z,42.93
2018-06-18T08:49:35.204Z,42.93
2018-06-18T08:50:34.970Z,43.02
2018-06-18T08:51:35.240Z,42.83
2018-06-18T08:52:35.282Z,42.73
2018-06-18T08:53:35.031Z,42.94
2018-06-18T08:54:35.054Z,42.94
2018-06-18T08:55:35.357Z,42.73
2018-06-18T08:56:35.366Z,42.75
2018-06-18T08:57:35.131Z,42.85
2018-06-18T08:58:35.420Z,42.94
2018-06-18T08:59:35.433Z,43.33
2018-06-18T09:00:35.472Z,42.85
2018-06-18T09:01:35.500Z,42.68
2018-06-18T09:02:35.500Z,42.48
2018-06-18T09:03:35.263Z,41.91
2018-06-18T09:04:35.596Z,41.91
2018-06-18T09:05:35.321Z,41.25
2018-06-18T09:06:35.617Z,40.86
2018-06-18T09:07:35.621Z,40.98
2018-06-18T09:08:35.661Z,41.08
2018-06-18T09:09:35.739Z,40.69
2018-06-18T09:10:35.775Z,40.3
2018-06-18T09:11:35.735Z,40.13
2018-06-18T09:12:35.488Z,39.84
2018-06-18T09:13:35.507Z,39.06
2018-06-18T09:14:35.802Z,38.97
2018-06-18T09:15:35.833Z,38.68
2018-06-18T09:16:35.854Z,38.79
2018-06-18T09:17:35.877Z,38.7
2018-06-18T09:18:35.909Z,38.5
2018-06-18T09:19:35.910Z,38.41
2018-06-18T09:20:35.954Z,38.43
2018-06-18T09:21:35.969Z,38.43
2018-06-18T09:22:35.997Z,37.85
2018-06-18T09:23:36.095Z,38.04
2018-06-18T09:24:36.044Z,37.94
2018-06-18T09:25:35.800Z,37.75
2018-06-18T09:26:36.090Z,37.28
2018-06-18T09:27:36.126Z,36.99
2018-06-18T09:28:36.127Z,37.09
2018-06-18T09:29:36.176Z,36.9
2018-06-18T09:30:36.183Z,36.8
2018-06-18T09:31:36.221Z,36.52
2018-06-18T09:32:36.387Z,36.43
2018-06-18T09:33:36.282Z,36.14
2018-06-18T09:34:36.025Z,35.75
2018-06-18T09:35:36.331Z,35.85
2018-06-18T09:36:36.342Z,35.56
2018-06-18T09:37:36.350Z,35.56
2018-06-18T09:38:36.120Z,35.28
2018-06-18T09:39:36.409Z,35.19
2018-06-18T09:40:36.446Z,34.89
2018-06-18T09:41:36.477Z,34.61
2018-06-18T09:42:36.490Z,34.51
2018-06-18T09:43:36.247Z,34.61
2018-06-18T09:44:36.539Z,34.12
2018-06-18T09:45:36.289Z,34.41
2018-06-18T09:46:36.602Z,33.94
2018-06-18T09:47:36.624Z,33.75
2018-06-18T09:48:36.648Z,34.23
2018-06-18T09:49:36.675Z,33.94
2018-06-18T09:50:36.680Z,33.56
2018-06-18T09:51:36.770Z,33.26
2018-06-18T09:52:36.770Z,33.46
2018-06-18T09:53:36.775Z,33.26
2018-06-18T09:54:36.796Z,33.07
2018-06-18T09:55:36.857Z,33.18
2018-06-18T09:56:36.850Z,33.28
2018-06-18T09:57:36.881Z,32.99
2018-06-18T09:58:36.638Z,32.7
2018-06-18T09:59:36.658Z,32.41
2018-06-18T10:00:36.961Z,32.7
2018-06-18T10:01:36.997Z,32.89
2018-06-18T10:02:36.990Z,32.23
2018-06-18T10:03:37.022Z,32.04
2018-06-18T10:04:36.790Z,32.32
2018-06-18T10:05:36.816Z,32.62
2018-06-18T10:06:37.114Z,32.04
2018-06-18T10:07:37.136Z,32.04
2018-06-18T10:08:37.333Z,32.15
2018-06-18T10:09:37.200Z,31.85
2018-06-18T10:10:37.329Z,31.37
2018-06-18T10:11:37.228Z,31.66
2018-06-18T10:12:37.262Z,31.95
2018-06-18T10:13:37.278Z,31.76
2018-06-18T10:14:37.309Z,31.57
2018-06-18T10:15:37.350Z,31.66
2018-06-18T10:16:37.368Z,31.48
2018-06-18T10:17:37.392Z,31.48
2018-06-18T10:18:37.421Z,31.58
2018-06-18T10:19:37.437Z,31.19
2018-06-18T10:20:37.514Z,31.19
2018-06-18T10:21:37.506Z,31.1
2018-06-18T10:22:37.523Z,30.91
2018-06-18T10:23:37.548Z,31.48
2018-06-18T10:24:37.568Z,31.11
2018-06-18T10:25:37.611Z,31.01
2018-06-18T10:26:37.372Z,31.01
2018-06-18T10:27:37.655Z,30.82
2018-06-18T10:28:37.679Z,30.43
2018-06-18T10:29:37.707Z,30.64
2018-06-18T10:30:37.470Z,30.64
2018-06-18T10:31:37.760Z,30.64
2018-06-18T10:32:37.796Z,30.35
2018-06-18T10:33:37.809Z,30.64
2018-06-18T10:34:37.859Z,30.44
2018-06-18T10:35:37.884Z,30.35
2018-06-18T10:36:37.907Z,29.96
2018-06-18T10:37:37.663Z,29.97
2018-06-18T10:38:37.952Z,29.78
2018-06-18T10:39:37.971Z,29.88
2018-06-18T10:40:38.005Z,29.88
2018-06-18T10:41:38.246Z,29.78
2018-06-18T10:42:38.049Z,29.68
2018-06-18T10:43:37.824Z,29.21
2018-06-18T10:44:38.128Z,29.1
2018-06-18T10:45:38.140Z,29.11
2018-06-18T10:46:37.897Z,29.11
2018-06-18T10:47:38.195Z,29.3
2018-06-18T10:48:38.237Z,28.93
2018-06-18T10:49:38.261Z,29.03
2018-06-18T10:50:38.276Z,29.32
2018-06-18T10:51:38.327Z,28.44
2018-06-18T10:52:38.328Z,28.44
2018-06-18T10:53:38.378Z,28.83
2018-06-18T10:54:38.403Z,28.83
2018-06-18T10:55:38.150Z,28.74
2018-06-18T10:56:38.441Z,28.64
2018-06-18T10:57:38.208Z,28.44
2018-06-18T10:58:38.506Z,28.15
2018-06-18T10:59:38.542Z,28.26
2018-06-18T11:00:38.279Z,27.95
2018-06-18T11:01:38.593Z,27.87
2018-06-18T11:02:38.623Z,27.97
2018-06-18T11:03:38.638Z,27.78
2018-06-18T11:04:38.406Z,27.48
2018-06-18T11:05:38.707Z,27.68
2018-06-18T11:06:38.459Z,27.4
2018-06-18T11:07:38.737Z,27.19
2018-06-18T11:08:38.768Z,27.3
2018-06-18T11:09:38.816Z,27.11
2018-06-18T11:10:38.560Z,27.01
2018-06-18T11:11:38.600Z,27.01
2018-06-18T11:12:38.880Z,26.82
2018-06-18T11:13:38.658Z,26.43
2018-06-18T11:14:38.955Z,26.63
2018-06-18T11:15:38.978Z,26.43
2018-06-18T11:16:39.054Z,26.34
2018-06-18T11:17:39.026Z,26.04
2018-06-18T11:18:39.058Z,26.06
2018-06-18T11:19:39.083Z,26.06
2018-06-18T11:20:39.106Z,25.96
2018-06-18T11:21:39.152Z,26.06
2018-06-18T11:22:39.167Z,25.68
2018-06-18T11:23:38.944Z,25.88
2018-06-18T11:24:39.259Z,25.39
2018-06-18T11:25:38.996Z,25.39
2018-06-18T11:26:39.412Z,25.39
2018-06-18T11:27:39.310Z,25.29
2018-06-18T11:28:39.406Z,25.39
2018-06-18T11:29:39.385Z,25.39
2018-06-18T11:30:39.396Z,25.49
2018-06-18T11:31:39.432Z,25.29
2018-06-18T11:32:39.297Z,25.29
2018-06-18T11:33:39.215Z,25.4
2018-06-18T11:34:39.521Z,25.4
2018-06-18T11:35:39.693Z,25.4
2018-06-18T11:36:39.620Z,25.5
2018-06-18T11:37:39.659Z,25.02
2018-06-18T11:38:39.649Z,25.31
2018-06-18T11:39:39.796Z,24.92
2018-06-18T11:40:39.778Z,24.82
2018-06-18T11:41:39.834Z,24.43
2018-06-18T11:42:39.758Z,24.54
2018-06-18T11:43:39.836Z,23.86
2018-06-18T11:44:39.817Z,23.66
2018-06-18T11:45:39.841Z,23.76
2018-06-18T11:46:39.606Z,23.57
2018-06-18T11:47:39.903Z,23.57
2018-06-18T11:48:39.921Z,23.47
2018-06-18T11:49:39.687Z,23.18
2018-06-18T11:50:39.984Z,23.37
2018-06-18T11:51:40.013Z,23.18
2018-06-18T11:52:39.827Z,23.47
2018-06-18T11:53:40.077Z,23.57
2018-06-18T11:54:40.112Z,22.88
2018-06-18T11:55:39.863Z,23.37
2018-06-18T11:56:40.166Z,23.57
2018-06-18T11:57:40.189Z,23.27
2018-06-18T11:58:40.224Z,23.18
2018-06-18T11:59:40.262Z,22.98
2018-06-18T12:00:40.282Z,22.98
2018-06-18T12:01:40.320Z,23.38
2018-06-18T12:02:40.329Z,22.8
2018-06-18T12:03:40.358Z,22.8
2018-06-18T12:04:40.397Z,23.09
2018-06-18T12:05:40.426Z,22.7
2018-06-18T12:06:40.469Z,22.7
2018-06-18T12:07:40.477Z,22.49
2018-06-18T12:08:40.525Z,22.59
2018-06-18T12:09:40.432Z,22.49
2018-06-18T12:10:40.593Z,22.59
2018-06-18T12:11:40.598Z,22.88
2018-06-18T12:12:40.627Z,22.98
2018-06-18T12:13:40.677Z,23.27
2018-06-18T12:14:40.686Z,22.99
2018-06-18T12:15:40.729Z,23.19
2018-06-18T12:16:40.823Z,23.19
2018-06-18T12:17:40.777Z,23.09
2018-06-18T12:18:40.826Z,23.09
2018-06-18T12:19:40.836Z,23.38
2018-06-18T12:20:40.597Z,23.38
2018-06-18T12:21:40.649Z,23.09
2018-06-18T12:22:40.960Z,22.99
2018-06-18T12:23:40.977Z,23.19
2018-06-18T12:24:40.999Z,23.09
2018-06-18T12:25:40.760Z,23.19
2018-06-18T12:26:41.064Z,22.89
2018-06-18T12:27:41.096Z,22.5
2018-06-18T12:28:41.137Z,22.6
2018-06-18T12:29:41.153Z,22.11
2018-06-18T12:30:41.186Z,22.6
2018-06-18T12:31:41.216Z,22.41
2018-06-18T12:32:41.233Z,22.11
2018-06-18T12:33:41.321Z,21.92
2018-06-18T12:34:41.031Z,21.52
2018-06-18T12:35:41.336Z,21.62
2018-06-18T12:36:41.346Z,21.81
2018-06-18T12:37:41.384Z,22.31
2018-06-18T12:38:41.434Z,22.41
2018-06-18T12:39:41.456Z,22.41
2018-06-18T12:40:41.489Z,21.92
2018-06-18T12:41:41.502Z,22.1
2018-06-18T12:42:41.533Z,21.71
2018-06-18T12:43:41.313Z,21.42
2018-06-18T12:44:41.593Z,21.61
2018-06-18T12:45:41.642Z,21.81
2018-06-18T12:46:41.754Z,22.1
2018-06-18T12:47:41.691Z,22.3
2018-06-18T12:48:41.714Z,22.39
2018-06-18T12:49:41.765Z,22.1
2018-06-18T12:50:41.792Z,22.3
2018-06-18T12:51:41.811Z,22
2018-06-18T12:52:41.883Z,21.99
2018-06-18T12:53:41.610Z,22.2
2018-06-18T12:54:41.630Z,22.19
2018-06-18T12:55:41.946Z,22.09